Etusivu
METAR-TAF:

METAR-TAF

Lentoasemat :

Natchitoches Regional Airport

Natchitoches, Louisiana, Yhdysvallat

Leveyspiiri: 31-44-09N, Pituuspiiri: 093-05-57W, korkeus merenpinnasta: 37 m

Tämänhetkinen sää

Tämä raportti tehtiin 16 minuuttia sitten, kello 12.15 UTC
Tuuli 12 kn etelästä puuskistuen 17 kn:hen
Lämpötila 25°C
Kosteus 79%
Ilmanpaine 1007 hPa
Näkyvyys: 16.1 km
Pilvistä 2400 ft:n korkeudessa

METAR: KIER 211215Z AUTO 17012G17KT 10SM OVC024 25/21 A2973 RMK AO2 T02460212

Aika: 07:31 (12:31 UTC)


TAF: puuttuu

Säähavainnot ja -ennusteet yli 4000 lentoasemalta (METAR- ja TAF-raportit).

Käytössä olevat sääasemat on merkitty karttaan keltaisilla ja punaisilla pisteillä.

Aseta hiiri pisteen päälle nähdäksesi sääaseman nimen.

Klikkaa sitten nähdäksesi säähavainnot ja -ennusteet.

Kartan vaihtaminen: klikkaa mustalla rastilla varustettuja vihreitä pisteitä, niin voit zoomata sisään; viivalla varustettua vihreää pistettä, niin voit zoomata ulos tai vihreitä nuolia, niin pääset viereisille kartoille.


METAR-TAF: